createdAt,value
2018-03-20T00:00:18.725Z,4.17
2018-03-20T00:02:22.100Z,4.33
2018-03-20T00:04:25.429Z,3.87
2018-03-20T00:06:28.745Z,4.00
2018-03-20T00:08:32.107Z,4.10
2018-03-20T00:10:35.462Z,4.53
2018-03-20T00:12:38.825Z,3.50
2018-03-20T00:14:42.168Z,4.07
2018-03-20T00:16:45.493Z,4.07
2018-03-20T00:18:48.843Z,4.23
2018-03-20T00:20:52.184Z,4.43
2018-03-20T00:22:55.542Z,4.47
2018-03-20T00:24:58.873Z,4.07
2018-03-20T00:27:02.223Z,4.40
2018-03-20T00:29:05.586Z,4.27
2018-03-20T00:31:08.906Z,4.27
2018-03-20T00:33:12.251Z,4.20
2018-03-20T00:35:15.574Z,4.33
2018-03-20T00:37:18.923Z,4.13
2018-03-20T00:39:22.273Z,4.60
2018-03-20T00:41:26.528Z,4.50
2018-03-20T00:43:29.887Z,4.70
2018-03-20T00:45:33.233Z,3.80
2018-03-20T00:47:36.563Z,3.90
2018-03-20T00:49:40.088Z,4.20
2018-03-20T00:51:43.414Z,4.50
2018-03-20T00:53:46.787Z,4.20
2018-03-20T00:55:50.112Z,4.70
2018-03-20T00:57:53.440Z,3.93
2018-03-20T00:59:56.767Z,4.20
2018-03-20T01:02:00.097Z,4.20
2018-03-20T01:04:03.457Z,4.03
2018-03-20T01:06:06.775Z,4.40
2018-03-20T01:08:10.147Z,4.70
2018-03-20T01:10:13.464Z,4.37
2018-03-20T01:12:16.780Z,4.03
2018-03-20T01:14:20.133Z,4.00
2018-03-20T01:16:23.476Z,4.47
2018-03-20T01:18:26.830Z,4.90
2018-03-20T01:20:30.164Z,4.30
2018-03-20T01:22:33.480Z,4.17
2018-03-20T01:24:36.838Z,4.13
2018-03-20T01:26:40.164Z,4.57
2018-03-20T01:28:43.519Z,4.07
2018-03-20T01:30:46.844Z,4.13
2018-03-20T01:32:50.174Z,4.40
2018-03-20T01:34:53.528Z,4.40
2018-03-20T01:36:56.854Z,4.60
2018-03-20T01:39:00.203Z,4.17
2018-03-20T01:41:03.525Z,4.47
2018-03-20T01:43:06.856Z,4.20
2018-03-20T01:45:10.210Z,4.20
2018-03-20T01:47:13.553Z,4.30
2018-03-20T01:49:16.915Z,3.90
2018-03-20T01:51:20.255Z,5.07
2018-03-20T01:53:23.579Z,4.47
2018-03-20T01:55:26.894Z,4.40
2018-03-20T01:57:30.215Z,4.47
2018-03-20T01:59:33.579Z,4.07
2018-03-20T02:01:36.958Z,4.40
2018-03-20T02:03:40.327Z,4.40
2018-03-20T02:05:43.663Z,4.60
2018-03-20T02:07:47.018Z,4.30
2018-03-20T02:09:50.359Z,4.47
2018-03-20T02:11:53.883Z,4.40
2018-03-20T02:13:57.218Z,4.37
2018-03-20T02:16:00.535Z,4.23
2018-03-20T02:18:03.867Z,4.50
2018-03-20T02:20:07.216Z,4.40
2018-03-20T02:22:10.552Z,4.40
2018-03-20T02:24:13.879Z,4.30
2018-03-20T02:26:17.207Z,4.50
2018-03-20T02:28:20.540Z,3.97
2018-03-20T02:30:23.902Z,4.20
2018-03-20T02:32:27.220Z,4.23
2018-03-20T02:34:30.549Z,4.27
2018-03-20T02:36:33.887Z,3.93
2018-03-20T02:38:37.220Z,4.17
2018-03-20T02:40:40.580Z,4.23
2018-03-20T02:42:43.937Z,4.30
2018-03-20T02:44:47.268Z,4.47
2018-03-20T02:46:50.594Z,4.20
2018-03-20T02:48:53.914Z,4.23
2018-03-20T02:50:57.276Z,4.03
2018-03-20T02:53:00.624Z,4.07
2018-03-20T02:55:03.947Z,3.80
2018-03-20T02:57:07.274Z,4.03
2018-03-20T02:59:10.600Z,4.33
2018-03-20T03:01:13.962Z,4.23
2018-03-20T03:03:17.473Z,4.00
2018-03-20T03:05:20.928Z,4.23
2018-03-20T03:07:24.416Z,4.27
2018-03-20T03:09:27.853Z,4.00
2018-03-20T03:11:31.331Z,4.00
2018-03-20T03:13:34.660Z,4.00
2018-03-20T03:15:38.008Z,4.23
2018-03-20T03:17:41.335Z,4.27
2018-03-20T03:19:44.668Z,4.20
2018-03-20T03:21:47.987Z,4.10
2018-03-20T03:23:51.330Z,4.13
2018-03-20T03:25:54.699Z,3.93
2018-03-20T03:27:57.813Z,4.10
2018-03-20T03:30:01.137Z,4.13
2018-03-20T03:32:04.463Z,3.40
2018-03-20T03:34:07.804Z,4.00
2018-03-20T03:36:11.161Z,4.13
2018-03-20T03:38:14.497Z,3.97
2018-03-20T03:40:17.821Z,3.80
2018-03-20T03:42:21.143Z,4.20
2018-03-20T03:44:24.476Z,4.00
2018-03-20T03:46:27.841Z,4.10
2018-03-20T03:48:31.229Z,4.33
2018-03-20T03:50:34.556Z,4.37
2018-03-20T03:52:37.879Z,4.00
2018-03-20T03:54:41.018Z,3.93
2018-03-20T03:56:44.376Z,3.83
2018-03-20T03:58:47.703Z,4.10
2018-03-20T04:00:51.024Z,4.10
2018-03-20T04:02:54.360Z,3.73
2018-03-20T04:04:57.694Z,4.03
2018-03-20T04:07:01.057Z,4.63
2018-03-20T04:09:03.736Z,4.00
2018-03-20T04:11:07.088Z,3.70
2018-03-20T04:13:10.414Z,4.20
2018-03-20T04:15:13.750Z,4.30
2018-03-20T04:17:17.135Z,4.30
2018-03-20T04:19:20.447Z,3.77
2018-03-20T04:21:23.584Z,4.10
2018-03-20T04:23:26.942Z,4.10
2018-03-20T04:25:30.304Z,4.17
2018-03-20T04:27:33.664Z,4.00
2018-03-20T04:29:36.985Z,4.00
2018-03-20T04:31:40.301Z,4.20
2018-03-20T04:33:43.623Z,4.23
2018-03-20T04:35:46.958Z,4.27
2018-03-20T04:37:50.334Z,3.60
2018-03-20T04:39:53.664Z,3.60
2018-03-20T04:41:56.990Z,3.97
2018-03-20T04:44:00.321Z,3.93
2018-03-20T04:46:03.643Z,3.70
2018-03-20T04:48:07.007Z,3.80
2018-03-20T04:50:10.332Z,3.80
2018-03-20T04:52:13.652Z,4.10
2018-03-20T04:54:17.025Z,4.03
2018-03-20T04:56:20.356Z,3.97
2018-03-20T04:58:23.714Z,4.30
2018-03-20T05:00:27.041Z,3.90
2018-03-20T05:02:30.357Z,3.57
2018-03-20T05:04:33.683Z,3.97
2018-03-20T05:06:37.064Z,3.93
2018-03-20T05:08:40.388Z,3.83
2018-03-20T05:10:43.718Z,4.00
2018-03-20T05:12:47.053Z,4.17
2018-03-20T05:14:50.408Z,4.03
2018-03-20T05:16:53.622Z,3.63
2018-03-20T05:19:01.220Z,3.47
2018-03-20T05:23:43.412Z,3.53
2018-03-20T05:25:46.569Z,3.70
2018-03-20T05:27:49.709Z,3.80
2018-03-20T05:29:52.899Z,4.10
2018-03-20T05:31:56.036Z,3.60
2018-03-20T05:33:59.212Z,3.67
2018-03-20T05:36:02.346Z,4.10
2018-03-20T05:38:05.509Z,3.30
2018-03-20T05:40:08.639Z,3.80
2018-03-20T05:42:11.792Z,3.83
2018-03-20T05:44:14.984Z,3.50
2018-03-20T05:46:19.104Z,3.90
2018-03-20T05:51:20.211Z,3.63
2018-03-20T05:53:23.385Z,3.90
2018-03-20T05:55:26.793Z,3.77
2018-03-20T05:57:30.155Z,4.30
2018-03-20T05:59:33.479Z,4.00
2018-03-20T06:01:36.655Z,3.97
2018-03-20T06:03:39.989Z,3.90
2018-03-20T06:05:43.330Z,3.60
2018-03-20T06:07:46.659Z,3.60
2018-03-20T06:09:49.984Z,3.93
2018-03-20T06:11:53.356Z,3.90
2018-03-20T06:13:56.763Z,3.83
2018-03-20T06:16:00.106Z,4.03
2018-03-20T06:18:03.464Z,4.20
2018-03-20T06:20:06.831Z,4.13
2018-03-20T06:22:10.199Z,3.80
2018-03-20T06:24:13.527Z,4.23
2018-03-20T06:26:16.866Z,3.60
2018-03-20T06:28:20.234Z,4.03
2018-03-20T06:30:23.709Z,4.23
2018-03-20T06:32:27.095Z,4.20
2018-03-20T06:34:30.421Z,4.10
2018-03-20T06:36:33.807Z,4.33
2018-03-20T06:38:37.145Z,4.00
2018-03-20T06:40:40.487Z,3.90
2018-03-20T06:42:43.811Z,4.20
2018-03-20T06:44:47.140Z,4.27
2018-03-20T06:46:50.542Z,4.30
2018-03-20T06:48:53.885Z,4.47
2018-03-20T06:50:57.261Z,4.33
2018-03-20T06:53:00.756Z,4.13
2018-03-20T06:55:04.067Z,4.47
2018-03-20T06:57:07.411Z,3.80
2018-03-20T06:59:10.731Z,3.83
2018-03-20T07:01:14.059Z,4.57
2018-03-20T07:03:17.378Z,4.50
2018-03-20T07:05:20.704Z,4.67
2018-03-20T07:07:24.056Z,4.20
2018-03-20T07:09:27.387Z,4.83
2018-03-20T07:11:30.720Z,4.10
2018-03-20T07:13:34.047Z,4.70
2018-03-20T07:15:37.369Z,4.63
2018-03-20T07:17:40.699Z,4.43
2018-03-20T07:19:44.027Z,4.90
2018-03-20T07:21:47.344Z,3.93
2018-03-20T07:23:50.670Z,4.53
2018-03-20T07:25:53.996Z,4.37
2018-03-20T07:27:57.312Z,4.57
2018-03-20T07:30:00.647Z,4.63
2018-03-20T07:32:03.976Z,4.60
2018-03-20T07:34:07.305Z,4.63
2018-03-20T07:36:10.637Z,4.17
2018-03-20T07:38:13.996Z,4.73
2018-03-20T07:40:17.329Z,4.37
2018-03-20T07:42:20.649Z,4.27
2018-03-20T07:44:23.980Z,4.70
2018-03-20T07:46:27.317Z,4.33
2018-03-20T07:48:30.738Z,3.83
2018-03-20T07:50:34.205Z,4.67
2018-03-20T07:52:37.523Z,4.73
2018-03-20T07:54:40.844Z,4.43
2018-03-20T07:56:44.182Z,4.60
2018-03-20T07:58:47.545Z,5.00
2018-03-20T08:00:50.873Z,4.30
2018-03-20T08:02:54.188Z,4.50
2018-03-20T08:04:57.514Z,4.60
2018-03-20T08:07:00.649Z,5.20
2018-03-20T08:09:03.352Z,4.80
2018-03-20T08:11:06.676Z,4.17
2018-03-20T08:13:10.013Z,4.37
2018-03-20T08:15:13.534Z,4.93
2018-03-20T08:17:16.723Z,4.90
2018-03-20T08:19:20.061Z,4.50
2018-03-20T08:21:23.392Z,4.80
2018-03-20T08:23:26.786Z,4.37
2018-03-20T08:25:30.117Z,4.03
2018-03-20T08:27:33.836Z,5.20
2018-03-20T08:29:37.157Z,4.23
2018-03-20T08:31:40.486Z,4.30
2018-03-20T08:33:43.809Z,4.30
2018-03-20T08:35:47.133Z,4.50
2018-03-20T08:37:50.456Z,4.00
2018-03-20T08:39:53.787Z,4.10
2018-03-20T08:41:57.118Z,4.07
2018-03-20T08:44:00.452Z,4.13
2018-03-20T08:46:03.784Z,4.00
2018-03-20T08:48:07.121Z,4.33
2018-03-20T08:50:10.473Z,4.53
2018-03-20T08:52:13.797Z,3.90
2018-03-20T08:54:17.158Z,4.27
2018-03-20T08:56:20.520Z,4.87
2018-03-20T08:58:23.877Z,4.63
2018-03-20T09:00:27.278Z,4.50
2018-03-20T09:02:30.727Z,4.30
2018-03-20T09:04:34.059Z,3.90
2018-03-20T09:06:37.391Z,4.17
2018-03-20T09:08:40.735Z,4.83
2018-03-20T09:10:44.064Z,4.30
2018-03-20T09:12:47.383Z,4.30
2018-03-20T09:14:50.719Z,4.40
2018-03-20T09:16:54.054Z,4.10
2018-03-20T09:18:57.384Z,4.23
2018-03-20T09:21:00.714Z,4.30
2018-03-20T09:23:04.043Z,3.93
2018-03-20T09:25:07.363Z,3.97
2018-03-20T09:27:10.688Z,4.33
2018-03-20T09:29:14.015Z,4.17
2018-03-20T09:31:17.330Z,3.93
2018-03-20T09:33:20.664Z,4.63
2018-03-20T09:35:24.006Z,4.10
2018-03-20T09:37:27.348Z,4.33
2018-03-20T09:39:30.453Z,4.00
2018-03-20T09:41:33.775Z,4.03
2018-03-20T09:43:37.122Z,4.30
2018-03-20T09:45:40.444Z,3.90
2018-03-20T09:47:43.768Z,3.90
2018-03-20T09:49:47.103Z,4.03
2018-03-20T09:51:50.430Z,3.90
2018-03-20T09:53:53.761Z,4.10
2018-03-20T09:55:57.084Z,3.97
2018-03-20T09:58:00.404Z,4.00
2018-03-20T10:00:03.745Z,4.03
2018-03-20T10:02:07.080Z,3.90
2018-03-20T10:04:10.402Z,3.50
2018-03-20T10:06:13.730Z,3.67
2018-03-20T10:08:17.054Z,3.67
2018-03-20T10:10:20.368Z,3.47
2018-03-20T10:12:23.710Z,3.47
2018-03-20T10:14:27.043Z,3.57
2018-03-20T10:16:30.380Z,3.47
2018-03-20T10:18:33.733Z,3.73
2018-03-20T10:20:37.085Z,4.10
2018-03-20T10:22:40.456Z,3.50
2018-03-20T10:24:43.782Z,3.27
2018-03-20T10:26:47.104Z,3.83
2018-03-20T10:28:50.425Z,3.60
2018-03-20T10:30:53.815Z,3.50
2018-03-20T10:32:57.182Z,3.80
2018-03-20T10:35:00.525Z,3.53
2018-03-20T10:37:03.853Z,4.00
2018-03-20T10:39:07.178Z,3.77
2018-03-20T10:41:10.503Z,3.27
2018-03-20T10:43:13.891Z,3.30
2018-03-20T10:45:17.207Z,3.87
2018-03-20T10:47:20.534Z,3.33
2018-03-20T10:49:23.665Z,3.27
2018-03-20T10:51:26.994Z,3.60
2018-03-20T10:53:30.354Z,4.10
2018-03-20T10:55:33.696Z,3.63
2018-03-20T10:57:36.787Z,3.47
2018-03-20T10:59:40.106Z,3.30
2018-03-20T11:01:46.366Z,3.50
2018-03-20T11:03:49.750Z,3.57
2018-03-20T11:05:53.134Z,3.20
2018-03-20T11:07:56.523Z,3.40
2018-03-20T11:09:59.845Z,3.97
2018-03-20T11:12:03.171Z,3.43
2018-03-20T11:14:06.536Z,3.20
2018-03-20T11:16:09.857Z,3.40
2018-03-20T11:18:13.176Z,3.20
2018-03-20T11:20:16.495Z,3.57
2018-03-20T11:22:19.853Z,3.07
2018-03-20T11:24:23.211Z,3.70
2018-03-20T11:26:26.524Z,3.17
2018-03-20T11:28:29.853Z,3.00
2018-03-20T11:30:33.186Z,3.50
2018-03-20T11:32:36.521Z,3.63
2018-03-20T11:34:39.839Z,3.30
2018-03-20T11:36:43.161Z,3.30
2018-03-20T11:38:46.490Z,3.70
2018-03-20T11:40:49.825Z,3.50
2018-03-20T11:42:53.158Z,3.80
2018-03-20T11:44:56.479Z,3.33
2018-03-20T11:46:59.805Z,3.30
2018-03-20T11:49:03.131Z,3.53
2018-03-20T11:51:06.476Z,3.33
2018-03-20T11:53:09.790Z,3.33
2018-03-20T11:55:13.216Z,3.47
2018-03-20T11:57:16.697Z,3.47
2018-03-20T11:59:20.013Z,3.63
2018-03-20T12:01:23.331Z,3.53
2018-03-20T12:03:26.649Z,4.03
2018-03-20T12:05:29.971Z,3.27
2018-03-20T12:07:33.335Z,3.50
2018-03-20T12:09:51.530Z,3.13
2018-03-20T12:11:54.928Z,3.30
2018-03-20T12:13:58.258Z,3.40
2018-03-20T12:16:01.585Z,3.20
2018-03-20T12:18:04.937Z,3.37
2018-03-20T12:20:08.274Z,3.07
2018-03-20T12:22:11.619Z,3.03
2018-03-20T12:24:14.940Z,3.37
2018-03-20T12:26:18.265Z,2.90
2018-03-20T12:28:21.633Z,2.90
2018-03-20T12:30:24.993Z,3.20
2018-03-20T12:32:29.084Z,3.33
2018-03-20T12:34:32.670Z,3.10
2018-03-20T12:36:36.007Z,3.17
2018-03-20T12:38:39.359Z,3.30
2018-03-20T12:40:42.446Z,3.00
2018-03-20T12:42:45.781Z,3.00
2018-03-20T12:44:49.154Z,3.03
2018-03-20T12:46:52.493Z,3.30
2018-03-20T12:48:56.015Z,2.87
2018-03-20T12:50:59.404Z,3.53
2018-03-20T12:53:03.455Z,3.23
2018-03-20T12:55:06.817Z,3.10
2018-03-20T12:57:10.228Z,3.13
2018-03-20T12:59:13.566Z,2.63
2018-03-20T13:01:17.712Z,2.90
2018-03-20T13:03:21.042Z,3.30
2018-03-20T13:05:24.419Z,3.30
2018-03-20T13:07:27.754Z,3.53
2018-03-20T13:09:31.211Z,3.60
2018-03-20T13:11:34.568Z,3.80
2018-03-20T13:13:37.960Z,3.50
2018-03-20T13:15:42.098Z,3.00
2018-03-20T13:17:45.437Z,3.87
2018-03-20T13:19:48.763Z,3.37
2018-03-20T13:21:52.162Z,3.50
2018-03-20T13:23:55.511Z,3.53
2018-03-20T13:25:58.861Z,3.43
2018-03-20T13:28:02.189Z,3.30
2018-03-20T13:30:05.524Z,3.83
2018-03-20T13:32:08.885Z,3.33
2018-03-20T13:34:12.308Z,3.50
2018-03-20T13:36:15.634Z,3.57
2018-03-20T13:38:18.985Z,3.70
2018-03-20T13:40:22.328Z,3.17
2018-03-20T13:42:25.704Z,3.50
2018-03-20T13:44:28.844Z,3.37
2018-03-20T13:46:32.259Z,3.30
2018-03-20T13:48:35.620Z,3.47
2018-03-20T13:50:38.968Z,3.47
2018-03-20T13:52:49.119Z,2.90
2018-03-20T13:54:45.948Z,2.97
2018-03-20T13:56:49.341Z,3.00
2018-03-20T13:58:52.710Z,2.83
2018-03-20T14:00:56.093Z,3.27
2018-03-20T14:03:00.211Z,3.03
2018-03-20T14:05:04.131Z,3.23
2018-03-20T14:07:07.607Z,2.93
2018-03-20T14:09:10.968Z,2.87
2018-03-20T14:11:14.394Z,3.13
2018-03-20T14:13:17.770Z,3.13
2018-03-20T14:15:21.098Z,3.43
2018-03-20T14:17:24.445Z,3.33
2018-03-20T14:19:27.811Z,2.80
2018-03-20T14:21:31.125Z,2.80
2018-03-20T14:23:34.479Z,3.20
2018-03-20T14:25:37.823Z,3.17
2018-03-20T14:27:41.165Z,2.90
2018-03-20T14:29:44.522Z,3.10
2018-03-20T14:31:47.859Z,2.83
2018-03-20T14:33:51.535Z,3.03
2018-03-20T14:35:55.207Z,2.93
2018-03-20T14:37:58.576Z,2.93
2018-03-20T14:40:01.949Z,3.03
2018-03-20T14:42:05.340Z,2.90
2018-03-20T14:44:08.679Z,3.00
2018-03-20T14:46:12.052Z,3.00
2018-03-20T14:48:15.376Z,2.80
2018-03-20T14:50:18.770Z,3.00
2018-03-20T14:52:22.136Z,2.67
2018-03-20T14:54:25.837Z,3.10
2018-03-20T14:56:29.271Z,2.53
2018-03-20T14:58:32.774Z,3.10
2018-03-20T15:00:36.104Z,2.90
2018-03-20T15:02:39.435Z,3.00
2018-03-20T15:04:42.768Z,2.80
2018-03-20T15:06:46.123Z,2.80
2018-03-20T15:08:50.950Z,2.70
2018-03-20T15:10:54.342Z,3.17
2018-03-20T15:12:57.693Z,3.00
2018-03-20T15:15:01.025Z,2.63
2018-03-20T15:17:04.483Z,2.63
2018-03-20T15:19:07.856Z,2.77
2018-03-20T15:21:11.437Z,2.40
2018-03-20T15:23:15.068Z,2.60
2018-03-20T15:25:18.390Z,2.80
2018-03-20T15:27:21.769Z,2.50
2018-03-20T15:29:25.101Z,2.90
2018-03-20T15:31:28.456Z,2.60
2018-03-20T15:33:31.789Z,2.77
2018-03-20T15:35:35.144Z,2.90
2018-03-20T15:37:38.513Z,3.00
2018-03-20T15:39:41.833Z,2.60
2018-03-20T15:41:45.160Z,2.93
2018-03-20T15:43:48.518Z,3.17
2018-03-20T15:45:51.878Z,2.83
2018-03-20T15:47:55.397Z,2.50
2018-03-20T15:49:58.738Z,2.80
2018-03-20T15:52:02.065Z,2.90
2018-03-20T15:54:05.504Z,2.60
2018-03-20T15:56:08.886Z,2.60
2018-03-20T15:58:12.225Z,2.90
2018-03-20T16:00:15.728Z,2.57
2018-03-20T16:02:19.044Z,2.63
2018-03-20T16:04:22.407Z,2.73
2018-03-20T16:06:25.789Z,2.50
2018-03-20T16:08:29.112Z,2.50
2018-03-20T16:10:32.444Z,2.60
2018-03-20T16:12:35.777Z,2.53
2018-03-20T16:14:39.143Z,2.23
2018-03-20T16:16:42.488Z,2.57
2018-03-20T16:18:45.818Z,2.70
2018-03-20T16:20:49.145Z,2.70
2018-03-20T16:22:52.479Z,2.50
2018-03-20T16:24:55.837Z,2.67
2018-03-20T16:26:59.191Z,2.70
2018-03-20T16:29:02.566Z,2.67
2018-03-20T16:31:05.705Z,2.50
2018-03-20T16:33:09.036Z,2.73
2018-03-20T16:35:12.415Z,2.73
2018-03-20T16:37:15.739Z,2.57
2018-03-20T16:39:19.075Z,2.73
2018-03-20T16:41:22.409Z,2.47
2018-03-20T16:43:25.746Z,2.60
2018-03-20T16:45:29.106Z,2.40
2018-03-20T16:47:32.436Z,2.27
2018-03-20T16:49:35.771Z,2.30
2018-03-20T16:51:39.110Z,2.40
2018-03-20T16:53:42.446Z,2.60
2018-03-20T16:55:46.493Z,2.60
2018-03-20T16:57:49.818Z,2.53
2018-03-20T16:59:53.134Z,2.53
2018-03-20T17:01:56.457Z,2.90
2018-03-20T17:03:59.781Z,2.77
2018-03-20T17:06:03.139Z,2.60
2018-03-20T17:08:06.472Z,2.70
2018-03-20T17:10:09.801Z,2.37
2018-03-20T17:12:13.120Z,2.73
2018-03-20T17:14:16.474Z,2.77
2018-03-20T17:16:20.010Z,2.50
2018-03-20T17:18:23.342Z,2.57
2018-03-20T17:20:26.710Z,2.47
2018-03-20T17:22:30.038Z,2.97
2018-03-20T17:24:33.356Z,2.30
2018-03-20T17:26:36.524Z,2.57
2018-03-20T17:28:39.869Z,2.37
2018-03-20T17:30:43.200Z,2.10
2018-03-20T17:32:46.524Z,2.23
2018-03-20T17:34:49.688Z,2.30
2018-03-20T17:36:53.114Z,2.33
2018-03-20T17:38:56.591Z,2.53
2018-03-20T17:41:00.093Z,2.40
2018-03-20T17:43:03.413Z,2.17
2018-03-20T17:45:06.724Z,2.70
2018-03-20T17:47:10.058Z,2.10
2018-03-20T17:49:13.432Z,2.73
2018-03-20T17:51:16.518Z,2.60
2018-03-20T17:53:19.858Z,2.50
2018-03-20T17:55:23.192Z,2.37
2018-03-20T17:57:26.590Z,2.23
2018-03-20T17:59:29.940Z,2.53
2018-03-20T18:01:33.346Z,2.37
2018-03-20T18:03:37.791Z,1.90
2018-03-20T18:05:41.891Z,2.20
2018-03-20T18:07:45.359Z,2.40
2018-03-20T18:09:48.721Z,2.83
2018-03-20T18:11:53.288Z,2.17
2018-03-20T18:13:58.738Z,2.47
2018-03-20T18:16:02.142Z,2.50
2018-03-20T18:18:05.563Z,2.13
2018-03-20T18:20:08.927Z,2.43
2018-03-20T18:22:12.307Z,2.33
2018-03-20T18:24:15.654Z,2.50
2018-03-20T18:26:19.130Z,2.10
2018-03-20T18:28:22.476Z,2.13
2018-03-20T18:30:25.916Z,2.50
2018-03-20T18:32:29.264Z,2.37
2018-03-20T18:34:32.699Z,2.50
2018-03-20T18:36:36.289Z,2.47
2018-03-20T18:38:40.701Z,2.00
2018-03-20T18:40:44.062Z,2.50
2018-03-20T18:42:47.394Z,2.60
2018-03-20T18:44:50.774Z,2.07
2018-03-20T18:46:54.295Z,2.70
2018-03-20T18:48:57.912Z,1.97
2018-03-20T18:51:02.008Z,2.40
2018-03-20T18:53:05.406Z,2.10
2018-03-20T18:55:09.669Z,2.57
2018-03-20T18:57:12.994Z,2.53
2018-03-20T18:59:16.377Z,2.27
2018-03-20T19:01:19.718Z,2.10
2018-03-20T19:03:23.054Z,2.33
2018-03-20T19:05:26.456Z,2.30
2018-03-20T19:07:29.787Z,2.53
2018-03-20T19:09:33.115Z,2.77
2018-03-20T19:11:36.455Z,2.40
2018-03-20T19:13:39.805Z,2.00
2018-03-20T19:15:43.186Z,2.03
2018-03-20T19:17:46.677Z,2.07
2018-03-20T19:19:51.225Z,2.27
2018-03-20T19:21:54.561Z,2.73
2018-03-20T19:23:57.711Z,2.47
2018-03-20T19:26:01.726Z,2.63
2018-03-20T19:28:05.363Z,2.80
2018-03-20T19:30:08.772Z,2.20
2018-03-20T19:32:12.099Z,2.50
2018-03-20T19:34:15.473Z,2.87
2018-03-20T19:36:18.952Z,2.30
2018-03-20T19:38:22.284Z,2.40
2018-03-20T19:40:25.670Z,2.20
2018-03-20T19:42:29.000Z,2.10
2018-03-20T19:44:32.314Z,2.60
2018-03-20T19:46:35.652Z,2.80
2018-03-20T19:48:38.979Z,2.47
2018-03-20T19:50:42.323Z,2.60
2018-03-20T19:52:45.636Z,2.57
2018-03-20T19:54:48.958Z,2.47
2018-03-20T19:56:52.312Z,3.00
2018-03-20T19:58:55.635Z,3.10
2018-03-20T20:00:58.953Z,3.10
2018-03-20T20:03:02.289Z,2.77
2018-03-20T20:05:05.618Z,3.20
2018-03-20T20:07:08.972Z,2.80
2018-03-20T20:09:12.299Z,2.70
2018-03-20T20:11:15.666Z,2.93
2018-03-20T20:13:19.018Z,3.43
2018-03-20T20:15:22.347Z,3.00
2018-03-20T20:17:25.675Z,2.60
2018-03-20T20:19:29.020Z,2.83
2018-03-20T20:21:32.355Z,2.90
2018-03-20T20:23:35.723Z,2.83
2018-03-20T20:25:40.807Z,3.40
2018-03-20T20:27:44.241Z,3.23
2018-03-20T20:29:47.561Z,3.10
2018-03-20T20:31:50.977Z,3.30
2018-03-20T20:33:54.379Z,3.20
2018-03-20T20:35:57.741Z,3.27
2018-03-20T20:38:01.591Z,2.80
2018-03-20T20:40:04.935Z,3.03
2018-03-20T20:42:08.318Z,3.40
2018-03-20T20:44:11.854Z,3.50
2018-03-20T20:46:15.391Z,3.20
2018-03-20T20:48:18.708Z,3.60
2018-03-20T20:50:22.062Z,3.37
2018-03-20T20:52:25.396Z,3.73
2018-03-20T20:54:28.716Z,3.30
2018-03-20T20:56:32.035Z,3.80
2018-03-20T20:58:35.341Z,3.60
2018-03-20T21:00:38.669Z,4.13
2018-03-20T21:02:41.991Z,4.00
2018-03-20T21:04:45.311Z,3.60
2018-03-20T21:06:48.648Z,3.53
2018-03-20T21:08:51.966Z,3.70
2018-03-20T21:10:55.316Z,3.93
2018-03-20T21:12:58.644Z,3.87
2018-03-20T21:15:01.976Z,3.90
2018-03-20T21:17:05.347Z,4.00
2018-03-20T21:19:08.678Z,4.80
2018-03-20T21:21:12.013Z,4.33
2018-03-20T21:23:15.341Z,4.30
2018-03-20T21:25:18.674Z,4.30
2018-03-20T21:27:21.999Z,4.47
2018-03-20T21:29:25.322Z,4.33
2018-03-20T21:31:28.642Z,4.37
2018-03-20T21:33:31.961Z,4.60
2018-03-20T21:35:35.299Z,4.13
2018-03-20T21:37:38.616Z,4.50
2018-03-20T21:39:41.938Z,4.57
2018-03-20T21:41:45.270Z,4.70
2018-03-20T21:43:48.591Z,5.00
2018-03-20T21:45:51.906Z,5.00
2018-03-20T21:47:55.244Z,5.10
2018-03-20T21:49:59.936Z,5.00
2018-03-20T21:52:03.265Z,4.73
2018-03-20T21:54:06.721Z,4.50
2018-03-20T21:56:10.210Z,4.50
2018-03-20T21:58:13.548Z,4.90
2018-03-20T22:00:16.880Z,5.00
2018-03-20T22:02:20.223Z,4.63
2018-03-20T22:04:23.547Z,5.07
2018-03-20T22:06:26.873Z,5.07
2018-03-20T22:08:30.203Z,5.20
2018-03-20T22:10:33.552Z,5.30
2018-03-20T22:12:36.888Z,5.40
2018-03-20T22:14:40.244Z,5.27
2018-03-20T22:16:43.567Z,4.93
2018-03-20T22:18:46.890Z,4.67
2018-03-20T22:20:50.258Z,5.70
2018-03-20T22:22:53.588Z,5.80
2018-03-20T22:24:56.916Z,5.03
2018-03-20T22:27:00.055Z,6.30
2018-03-20T22:29:03.375Z,5.57
2018-03-20T22:31:06.720Z,5.33
2018-03-20T22:33:10.040Z,5.77
2018-03-20T22:35:13.370Z,5.87
2018-03-20T22:37:16.720Z,5.60
2018-03-20T22:39:20.032Z,5.13
2018-03-20T22:41:23.403Z,5.17
2018-03-20T22:43:26.733Z,5.07
2018-03-20T22:45:30.064Z,6.40
2018-03-20T22:47:33.421Z,5.97
2018-03-20T22:49:36.742Z,6.20
2018-03-20T22:51:40.091Z,6.37
2018-03-20T22:53:43.423Z,6.40
2018-03-20T22:55:46.754Z,5.70
2018-03-20T22:57:50.309Z,5.87
2018-03-20T22:59:53.632Z,6.90
2018-03-20T23:01:57.026Z,5.97
2018-03-20T23:04:00.349Z,6.23
2018-03-20T23:06:03.681Z,6.20
2018-03-20T23:08:07.027Z,6.83
2018-03-20T23:10:10.356Z,6.67
2018-03-20T23:12:13.741Z,7.07
2018-03-20T23:14:17.067Z,7.00
2018-03-20T23:16:20.390Z,6.70
2018-03-20T23:18:23.755Z,5.83
2018-03-20T23:20:27.090Z,5.90
2018-03-20T23:22:30.419Z,6.33
2018-03-20T23:24:33.753Z,6.70
2018-03-20T23:26:37.080Z,7.13
2018-03-20T23:28:40.457Z,6.50
2018-03-20T23:30:43.605Z,7.00
2018-03-20T23:32:46.946Z,6.77
2018-03-20T23:34:50.276Z,7.03
2018-03-20T23:36:53.607Z,7.43
2018-03-20T23:38:56.966Z,7.13
2018-03-20T23:41:00.298Z,7.13
2018-03-20T23:43:03.624Z,6.53
2018-03-20T23:45:06.806Z,6.90
2018-03-20T23:47:10.132Z,6.33
2018-03-20T23:49:13.514Z,7.53
2018-03-20T23:51:16.836Z,6.83
2018-03-20T23:53:20.158Z,7.73
2018-03-20T23:55:23.510Z,7.40
2018-03-20T23:57:26.837Z,7.27
2018-03-20T23:59:30.165Z,7.60
